PWSweather.com
Personal Weather Stations
Station Observations
MAKAWAOWX1
Up Country Maui, Makawao, HI 96768

Up Country MauiMakawao, HI 96768

Lat: 20.856944, Lon: -156.3149667

Elevation: 1500

Station Type: Davis Vantage Pro

www.dwayneyamato@hawaiiantel.net

High Low Average
Temperature 80.5°F26.9°F 60.6°F15.9°F 70.5°F21.4°F
Dew Point 67.5°F19.7°F 56.4°F13.6°F 62.6°F17.0°F
Winds 10.4 mph E16.7 mph E Calm Calm 1.1 mph 1.8 mph
Wind Gusts 15.0 mph24.1 mph -- 3.2 mph5.1 mph
Humidity 89% 63% 76%
Pressure 30.07 in1018.30 in 29.96 in1014.60 in -
Precipitation 0.00 in0.00 in - -
Hour Temp Dew Point Humidity Winds Wind Gusts Pressure Precip Precip Rate Daily Precip Total
12:00 AM 66.8°F19.3°C 61.1°F16.2°C 82% 4.6 mph ENE7.4 kmh ENE 12.7 mph20.4 kmh 30.07 in1018.3 mb - 0.00 in0.0 mm 0.00 in0.0 mm
12:10 AM 66.4°F19.1°C 61.4°F16.3°C 84% 3.5 mph E5.6 kmh E 8.1 mph13.0 kmh 30.06 in1017.9 mb - 0.00 in0.0 mm 0.00 in0.0 mm
12:20 AM 66.8°F19.3°C 61.8°F16.6°C 84% Calm Calm -- 30.06 in1017.9 mb - 0.00 in0.0 mm 0.00 in0.0 mm
12:30 AM 66.7°F19.3°C 62.0°F16.7°C 85% 2.3 mph E3.7 kmh E 6.9 mph11.1 kmh 30.06 in1017.9 mb - 0.00 in0.0 mm 0.00 in0.0 mm
12:40 AM 66.6°F19.2°C 62.3°F16.8°C 86% 6.9 mph E11.1 kmh E 11.5 mph18.5 kmh 30.06 in1017.9 mb - 0.00 in0.0 mm 0.00 in0.0 mm
12:50 AM 66.6°F19.2°C 61.9°F16.6°C 85% Calm Calm -- 30.06 in1017.9 mb - 0.00 in0.0 mm 0.00 in0.0 mm
01:00 AM 66.4°F19.1°C 61.4°F16.3°C 84% 6.9 mph E11.1 kmh E 11.5 mph18.5 kmh 30.05 in1017.6 mb - 0.00 in0.0 mm 0.00 in0.0 mm
01:10 AM 66.6°F19.2°C 61.0°F16.1°C 82% 3.5 mph E5.6 kmh E 4.6 mph7.4 kmh 30.05 in1017.6 mb - 0.00 in0.0 mm 0.00 in0.0 mm
01:20 AM 66.5°F19.2°C 60.5°F15.8°C 81% 1.2 mph E1.9 kmh E -- 30.05 in1017.6 mb - 0.00 in0.0 mm 0.00 in0.0 mm
01:30 AM 66.3°F19.1°C 60.3°F15.7°C 81% Calm Calm -- 30.05 in1017.6 mb - 0.00 in0.0 mm 0.00 in0.0 mm
01:40 AM 66.1°F18.9°C 60.1°F15.6°C 81% Calm Calm -- 30.05 in1017.6 mb - 0.00 in0.0 mm 0.00 in0.0 mm
01:50 AM 66.1°F18.9°C 59.7°F15.4°C 80% 3.5 mph E5.6 kmh E 11.5 mph18.5 kmh 30.05 in1017.6 mb - 0.00 in0.0 mm 0.00 in0.0 mm
02:00 AM 65.9°F18.8°C 59.2°F15.1°C 79% Calm Calm -- 30.04 in1017.3 mb - 0.00 in0.0 mm 0.00 in0.0 mm
02:10 AM 65.7°F18.7°C 59.4°F15.2°C 80% Calm Calm -- 30.04 in1017.3 mb - 0.00 in0.0 mm 0.00 in0.0 mm
02:20 AM 66.1°F18.9°C 59.0°F15.0°C 78% 1.2 mph E1.9 kmh E 13.8 mph22.2 kmh 30.04 in1017.3 mb - 0.00 in0.0 mm 0.00 in0.0 mm
02:30 AM 65.8°F18.8°C 59.1°F15.1°C 79% Calm Calm 9.2 mph14.8 kmh 30.04 in1017.3 mb - 0.00 in0.0 mm 0.00 in0.0 mm
02:40 AM 65.8°F18.8°C 59.5°F15.3°C 80% 3.5 mph E5.6 kmh E 11.5 mph18.5 kmh 30.03 in1016.9 mb - 0.00 in0.0 mm 0.00 in0.0 mm
02:50 AM 65.7°F18.7°C 59.4°F15.2°C 80% Calm Calm 6.9 mph11.1 kmh 30.03 in1016.9 mb - 0.00 in0.0 mm 0.00 in0.0 mm
03:00 AM 65.6°F18.7°C 58.9°F14.9°C 79% Calm Calm -- 30.03 in1016.9 mb - 0.00 in0.0 mm 0.00 in0.0 mm
03:10 AM 65.7°F18.7°C 58.7°F14.8°C 78% 1.2 mph E1.9 kmh E 4.6 mph7.4 kmh 30.03 in1016.9 mb - 0.00 in0.0 mm 0.00 in0.0 mm
03:20 AM 65.6°F18.7°C 57.5°F14.2°C 75% 2.3 mph E3.7 kmh E 4.6 mph7.4 kmh 30.03 in1016.9 mb - 0.00 in0.0 mm 0.00 in0.0 mm
03:30 AM 65.9°F18.8°C 57.4°F14.1°C 74% 1.2 mph ESE1.9 kmh ESE 6.9 mph11.1 kmh 30.03 in1016.9 mb - 0.00 in0.0 mm 0.00 in0.0 mm
03:40 AM 65.9°F18.8°C 57.4°F14.1°C 74% 3.5 mph E5.6 kmh E 10.4 mph16.7 kmh 30.02 in1016.6 mb - 0.00 in0.0 mm 0.00 in0.0 mm
03:50 AM 65.9°F18.8°C 57.4°F14.1°C 74% Calm Calm 1.2 mph1.9 kmh 30.03 in1016.9 mb - 0.00 in0.0 mm 0.00 in0.0 mm
04:00 AM 66.0°F18.9°C 57.5°F14.2°C 74% Calm Calm 4.6 mph7.4 kmh 30.02 in1016.6 mb - 0.00 in0.0 mm 0.00 in0.0 mm
04:10 AM 66.3°F19.1°C 58.1°F14.5°C 75% Calm Calm -- 30.02 in1016.6 mb - 0.00 in0.0 mm 0.00 in0.0 mm
04:20 AM 65.7°F18.7°C 58.3°F14.6°C 77% 2.3 mph E3.7 kmh E 12.7 mph20.4 kmh 30.02 in1016.6 mb - 0.00 in0.0 mm 0.00 in0.0 mm
04:30 AM 65.3°F18.5°C 57.9°F14.4°C 77% Calm Calm -- 30.02 in1016.6 mb - 0.00 in0.0 mm 0.00 in0.0 mm
04:40 AM 65.3°F18.5°C 58.6°F14.8°C 79% Calm Calm -- 30.02 in1016.6 mb - 0.00 in0.0 mm 0.00 in0.0 mm
04:50 AM 64.9°F18.3°C 58.6°F14.8°C 80% Calm Calm -- 30.01 in1016.3 mb - 0.00 in0.0 mm 0.00 in0.0 mm
05:00 AM 64.5°F18.1°C 58.2°F14.6°C 80% Calm Calm -- 30.02 in1016.6 mb - 0.00 in0.0 mm 0.00 in0.0 mm
05:10 AM 64.0°F17.8°C 58.7°F14.8°C 83% Calm Calm -- 30.02 in1016.6 mb - 0.00 in0.0 mm 0.00 in0.0 mm
05:20 AM 63.7°F17.6°C 57.8°F14.3°C 81% Calm Calm -- 30.02 in1016.6 mb - 0.00 in0.0 mm 0.00 in0.0 mm
05:30 AM 63.2°F17.3°C 57.9°F14.4°C 83% Calm Calm -- 30.02 in1016.6 mb - 0.00 in0.0 mm 0.00 in0.0 mm
05:40 AM 62.9°F17.2°C 57.7°F14.3°C 83% Calm Calm -- 30.02 in1016.6 mb - 0.00 in0.0 mm 0.00 in0.0 mm
05:50 AM 62.2°F16.8°C 57.0°F13.9°C 83% Calm Calm -- 30.02 in1016.6 mb - 0.00 in0.0 mm 0.00 in0.0 mm
06:00 AM 61.6°F16.4°C 56.7°F13.7°C 84% Calm Calm -- 30.03 in1016.9 mb - 0.00 in0.0 mm 0.00 in0.0 mm
06:10 AM 61.1°F16.2°C 56.5°F13.6°C 85% Calm Calm -- 30.03 in1016.9 mb - 0.00 in0.0 mm 0.00 in0.0 mm
06:20 AM 60.6°F15.9°C 56.4°F13.6°C 86% 1.2 mph ESE1.9 kmh ESE 3.5 mph5.6 kmh 30.04 in1017.3 mb - 0.00 in0.0 mm 0.00 in0.0 mm
06:30 AM 61.0°F16.1°C 57.1°F13.9°C 87% Calm Calm -- 30.04 in1017.3 mb - 0.00 in0.0 mm 0.00 in0.0 mm
06:40 AM 61.5°F16.4°C 57.3°F14.1°C 86% 1.2 mph ESE1.9 kmh ESE 4.6 mph7.4 kmh 30.03 in1016.9 mb - 0.00 in0.0 mm 0.00 in0.0 mm
06:50 AM 61.6°F16.4°C 57.0°F13.9°C 85% Calm Calm 5.8 mph9.3 kmh 30.04 in1017.3 mb - 0.00 in0.0 mm 0.00 in0.0 mm
07:00 AM 62.1°F16.7°C 57.2°F14.0°C 84% Calm Calm -- 30.04 in1017.3 mb - 0.00 in0.0 mm 0.00 in0.0 mm
07:10 AM 63.0°F17.2°C 57.4°F14.1°C 82% Calm Calm -- 30.05 in1017.6 mb - 0.00 in0.0 mm 0.00 in0.0 mm
07:20 AM 63.8°F17.7°C 57.9°F14.4°C 81% 2.3 mph E3.7 kmh E 3.5 mph5.6 kmh 30.04 in1017.3 mb - 0.00 in0.0 mm 0.00 in0.0 mm
07:30 AM 64.8°F18.2°C 58.8°F14.9°C 81% Calm Calm -- 30.05 in1017.6 mb - 0.00 in0.0 mm 0.00 in0.0 mm
07:40 AM 64.9°F18.3°C 58.9°F14.9°C 81% Calm Calm -- 30.05 in1017.6 mb - 0.00 in0.0 mm 0.00 in0.0 mm
07:50 AM 65.2°F18.4°C 59.5°F15.3°C 82% Calm Calm -- 30.06 in1017.9 mb - 0.00 in0.0 mm 0.00 in0.0 mm
08:00 AM 65.7°F18.7°C 59.7°F15.4°C 81% Calm Calm -- 30.06 in1017.9 mb - 0.00 in0.0 mm 0.00 in0.0 mm
08:10 AM 67.1°F19.5°C 60.3°F15.7°C 79% Calm Calm -- 30.07 in1018.3 mb - 0.00 in0.0 mm 0.00 in0.0 mm
08:20 AM 69.6°F20.9°C 60.9°F16.1°C 74% Calm Calm -- 30.07 in1018.3 mb - 0.00 in0.0 mm 0.00 in0.0 mm
08:30 AM 71.6°F22.0°C 61.7°F16.5°C 71% Calm Calm -- 30.07 in1018.3 mb - 0.00 in0.0 mm 0.00 in0.0 mm
08:40 AM 72.8°F22.7°C 62.5°F16.9°C 70% 1.2 mph E1.9 kmh E 4.6 mph7.4 kmh 30.07 in1018.3 mb - 0.00 in0.0 mm 0.00 in0.0 mm
08:50 AM 73.9°F23.3°C 62.7°F17.1°C 68% 4.6 mph E7.4 kmh E 9.2 mph14.8 kmh 30.07 in1018.3 mb - 0.00 in0.0 mm 0.00 in0.0 mm
09:00 AM 74.0°F23.3°C 62.0°F16.7°C 66% Calm Calm -- 30.07 in1018.3 mb - 0.00 in0.0 mm 0.00 in0.0 mm
09:10 AM 73.9°F23.3°C 61.8°F16.6°C 66% Calm Calm 1.2 mph1.9 kmh 30.07 in1018.3 mb - 0.00 in0.0 mm 0.00 in0.0 mm
09:20 AM 74.4°F23.6°C 61.8°F16.6°C 65% Calm Calm -- 30.07 in1018.3 mb - 0.00 in0.0 mm 0.00 in0.0 mm
09:30 AM 75.4°F24.1°C 62.4°F16.9°C 64% Calm Calm -- 30.07 in1018.3 mb - 0.00 in0.0 mm 0.00 in0.0 mm
09:40 AM 74.9°F23.8°C 63.2°F17.3°C 67% Calm Calm -- 30.06 in1017.9 mb - 0.00 in0.0 mm 0.00 in0.0 mm
09:50 AM 75.8°F24.3°C 62.8°F17.1°C 64% Calm Calm -- 30.06 in1017.9 mb - 0.00 in0.0 mm 0.00 in0.0 mm
10:00 AM 76.1°F24.5°C 63.5°F17.5°C 65% Calm Calm -- 30.06 in1017.9 mb - 0.00 in0.0 mm 0.00 in0.0 mm
10:10 AM 75.5°F24.2°C 64.2°F17.9°C 68% Calm Calm -- 30.06 in1017.9 mb - 0.00 in0.0 mm 0.00 in0.0 mm
10:20 AM 76.9°F24.9°C 64.7°F18.2°C 66% 5.8 mph ENE9.3 kmh ENE 6.9 mph11.1 kmh 30.05 in1017.6 mb - 0.00 in0.0 mm 0.00 in0.0 mm
10:30 AM 77.8°F25.4°C 64.2°F17.9°C 63% 2.3 mph E3.7 kmh E 10.4 mph16.7 kmh 30.05 in1017.6 mb - 0.00 in0.0 mm 0.00 in0.0 mm
10:40 AM 78.1°F25.6°C 65.0°F18.3°C 64% Calm Calm -- 30.05 in1017.6 mb - 0.00 in0.0 mm 0.00 in0.0 mm
10:50 AM 77.6°F25.3°C 64.0°F17.8°C 63% Calm Calm -- 30.05 in1017.6 mb - 0.00 in0.0 mm 0.00 in0.0 mm
11:00 AM 76.8°F24.9°C 64.6°F18.1°C 66% 2.3 mph E3.7 kmh E -- 30.05 in1017.6 mb - 0.00 in0.0 mm 0.00 in0.0 mm
11:10 AM 76.9°F24.9°C 65.1°F18.4°C 67% Calm Calm -- 30.05 in1017.6 mb - 0.00 in0.0 mm 0.00 in0.0 mm
11:20 AM 77.5°F25.3°C 66.1°F18.9°C 68% 5.8 mph SE9.3 kmh SE 6.9 mph11.1 kmh 30.05 in1017.6 mb - 0.00 in0.0 mm 0.00 in0.0 mm
11:30 AM 77.6°F25.3°C 65.3°F18.5°C 66% 2.3 mph E3.7 kmh E 11.5 mph18.5 kmh 30.04 in1017.3 mb - 0.00 in0.0 mm 0.00 in0.0 mm
11:40 AM 77.3°F25.2°C 65.0°F18.3°C 66% 10.4 mph E16.7 kmh E 11.5 mph18.5 kmh 30.04 in1017.3 mb - 0.00 in0.0 mm 0.00 in0.0 mm
11:50 AM 76.5°F24.7°C 65.6°F18.7°C 69% 1.2 mph E1.9 kmh E 3.5 mph5.6 kmh 30.04 in1017.3 mb - 0.00 in0.0 mm 0.00 in0.0 mm
12:00 PM 76.7°F24.8°C 66.2°F19.0°C 70% Calm Calm -- 30.04 in1017.3 mb - 0.00 in0.0 mm 0.00 in0.0 mm
12:10 PM 76.6°F24.8°C 66.1°F18.9°C 70% 1.2 mph ESE1.9 kmh ESE 10.4 mph16.7 kmh 30.03 in1016.9 mb - 0.00 in0.0 mm 0.00 in0.0 mm
12:20 PM 76.5°F24.7°C 66.4°F19.1°C 71% 3.5 mph E5.6 kmh E 11.5 mph18.5 kmh 30.03 in1016.9 mb - 0.00 in0.0 mm 0.00 in0.0 mm
12:30 PM 77.6°F25.3°C 67.5°F19.7°C 71% 8.1 mph E13.0 kmh E 11.5 mph18.5 kmh 30.02 in1016.6 mb - 0.00 in0.0 mm 0.00 in0.0 mm
12:40 PM 77.8°F25.4°C 66.4°F19.1°C 68% 2.3 mph ESE3.7 kmh ESE -- 30.02 in1016.6 mb - 0.00 in0.0 mm 0.00 in0.0 mm
12:50 PM 77.0°F25.0°C 66.0°F18.9°C 69% Calm Calm 12.7 mph20.4 kmh 30.01 in1016.3 mb - 0.00 in0.0 mm 0.00 in0.0 mm
01:00 PM 77.0°F25.0°C 66.5°F19.2°C 70% 1.2 mph E1.9 kmh E 4.6 mph7.4 kmh 30.01 in1016.3 mb - 0.00 in0.0 mm 0.00 in0.0 mm
01:10 PM 77.7°F25.4°C 66.3°F19.1°C 68% 1.2 mph E1.9 kmh E 8.1 mph13.0 kmh 30.00 in1015.9 mb - 0.00 in0.0 mm 0.00 in0.0 mm
01:20 PM 77.3°F25.2°C 65.9°F18.8°C 68% 4.6 mph E7.4 kmh E 8.1 mph13.0 kmh 30.00 in1015.9 mb - 0.00 in0.0 mm 0.00 in0.0 mm
01:30 PM 77.2°F25.1°C 66.2°F19.0°C 69% 5.8 mph E9.3 kmh E 15.0 mph24.1 kmh 29.99 in1015.6 mb - 0.00 in0.0 mm 0.00 in0.0 mm
01:40 PM 76.4°F24.7°C 65.9°F18.8°C 70% 3.5 mph ENE5.6 kmh ENE 11.5 mph18.5 kmh 29.99 in1015.6 mb - 0.00 in0.0 mm 0.00 in0.0 mm
01:50 PM 76.6°F24.8°C 66.1°F18.9°C 70% 6.9 mph E11.1 kmh E 11.5 mph18.5 kmh 29.99 in1015.6 mb - 0.00 in0.0 mm 0.00 in0.0 mm
02:00 PM 77.6°F25.3°C 66.2°F19.0°C 68% Calm Calm -- 29.99 in1015.6 mb - 0.00 in0.0 mm 0.00 in0.0 mm
02:10 PM 77.7°F25.4°C 66.3°F19.1°C 68% 1.2 mph E1.9 kmh E 9.2 mph14.8 kmh 29.98 in1015.2 mb - 0.00 in0.0 mm 0.00 in0.0 mm
02:20 PM 77.6°F25.3°C 66.2°F19.0°C 68% 4.6 mph E7.4 kmh E 9.2 mph14.8 kmh 29.98 in1015.2 mb - 0.00 in0.0 mm 0.00 in0.0 mm
02:30 PM 78.5°F25.8°C 66.6°F19.2°C 67% 1.2 mph E1.9 kmh E 10.4 mph16.7 kmh 29.98 in1015.2 mb - 0.00 in0.0 mm 0.00 in0.0 mm
02:40 PM 77.1°F25.1°C 65.3°F18.5°C 67% 2.3 mph ENE3.7 kmh ENE 11.5 mph18.5 kmh 29.98 in1015.2 mb - 0.00 in0.0 mm 0.00 in0.0 mm
02:50 PM 76.3°F24.6°C 65.4°F18.6°C 69% 2.3 mph E3.7 kmh E 8.1 mph13.0 kmh 29.98 in1015.2 mb - 0.00 in0.0 mm 0.00 in0.0 mm
03:00 PM 75.4°F24.1°C 64.9°F18.3°C 70% 2.3 mph E3.7 kmh E 4.6 mph7.4 kmh 29.97 in1014.9 mb - 0.00 in0.0 mm 0.00 in0.0 mm
03:10 PM 74.7°F23.7°C 65.1°F18.4°C 72% 1.2 mph E1.9 kmh E 1.2 mph1.9 kmh 29.97 in1014.9 mb - 0.00 in0.0 mm 0.00 in0.0 mm
03:20 PM 74.9°F23.8°C 65.7°F18.7°C 73% 4.6 mph E7.4 kmh E 9.2 mph14.8 kmh 29.97 in1014.9 mb - 0.00 in0.0 mm 0.00 in0.0 mm
03:30 PM 75.1°F23.9°C 65.5°F18.6°C 72% Calm Calm -- 29.97 in1014.9 mb - 0.00 in0.0 mm 0.00 in0.0 mm
03:40 PM 76.3°F24.6°C 66.6°F19.2°C 72% Calm Calm -- 29.97 in1014.9 mb - 0.00 in0.0 mm 0.00 in0.0 mm
03:50 PM 78.3°F25.7°C 67.3°F19.6°C 69% Calm Calm -- 29.97 in1014.9 mb - 0.00 in0.0 mm 0.00 in0.0 mm
04:00 PM 79.9°F26.6°C 67.1°F19.5°C 65% Calm Calm -- 29.96 in1014.6 mb - 0.00 in0.0 mm 0.00 in0.0 mm
04:10 PM 80.5°F26.9°C 66.8°F19.3°C 63% 1.2 mph SSW1.9 kmh SSW 10.4 mph16.7 kmh 29.96 in1014.6 mb - 0.00 in0.0 mm 0.00 in0.0 mm
04:20 PM 80.3°F26.8°C 67.0°F19.4°C 64% 1.2 mph SW1.9 kmh SW 1.2 mph1.9 kmh 29.96 in1014.6 mb - 0.00 in0.0 mm 0.00 in0.0 mm
04:30 PM 79.8°F26.6°C 67.0°F19.4°C 65% 1.2 mph S1.9 kmh S -- 29.97 in1014.9 mb - 0.00 in0.0 mm 0.00 in0.0 mm
04:40 PM 79.8°F26.6°C 67.0°F19.4°C 65% Calm Calm 3.5 mph5.6 kmh 29.97 in1014.9 mb - 0.00 in0.0 mm 0.00 in0.0 mm
04:50 PM 78.9°F26.1°C 66.6°F19.2°C 66% 1.2 mph SW1.9 kmh SW 9.2 mph14.8 kmh 29.97 in1014.9 mb - 0.00 in0.0 mm 0.00 in0.0 mm
05:00 PM 77.7°F25.4°C 66.3°F19.1°C 68% 3.5 mph SW5.6 kmh SW 13.8 mph22.2 kmh 29.98 in1015.2 mb - 0.00 in0.0 mm 0.00 in0.0 mm
05:10 PM 76.2°F24.6°C 65.7°F18.7°C 70% 1.2 mph SW1.9 kmh SW -- 29.98 in1015.2 mb - 0.00 in0.0 mm 0.00 in0.0 mm
05:20 PM 76.2°F24.6°C 66.1°F18.9°C 71% 3.5 mph SW5.6 kmh SW 10.4 mph16.7 kmh 29.98 in1015.2 mb - 0.00 in0.0 mm 0.00 in0.0 mm
05:30 PM 76.0°F24.4°C 66.3°F19.1°C 72% Calm Calm -- 29.98 in1015.2 mb - 0.00 in0.0 mm 0.00 in0.0 mm
05:40 PM 75.7°F24.3°C 66.0°F18.9°C 72% 2.3 mph SW3.7 kmh SW 6.9 mph11.1 kmh 29.99 in1015.6 mb - 0.00 in0.0 mm 0.00 in0.0 mm
05:50 PM 74.9°F23.8°C 65.6°F18.7°C 73% Calm Calm -- 29.99 in1015.6 mb - 0.00 in0.0 mm 0.00 in0.0 mm
06:00 PM 74.0°F23.3°C 65.2°F18.4°C 74% Calm Calm -- 29.99 in1015.6 mb - 0.00 in0.0 mm 0.00 in0.0 mm
06:10 PM 73.1°F22.8°C 65.5°F18.6°C 77% Calm Calm -- 30.00 in1015.9 mb - 0.00 in0.0 mm 0.00 in0.0 mm
06:20 PM 72.4°F22.4°C 65.2°F18.4°C 78% 2.3 mph SW3.7 kmh SW 5.8 mph9.3 kmh 30.00 in1015.9 mb - 0.00 in0.0 mm 0.00 in0.0 mm
06:30 PM 71.7°F22.1°C 65.2°F18.4°C 80% Calm Calm -- 30.00 in1015.9 mb - 0.00 in0.0 mm 0.00 in0.0 mm
06:40 PM 71.3°F21.8°C 65.2°F18.4°C 81% Calm Calm -- 30.01 in1016.3 mb - 0.00 in0.0 mm 0.00 in0.0 mm
06:50 PM 71.0°F21.7°C 65.2°F18.4°C 82% Calm Calm -- 30.01 in1016.3 mb - 0.00 in0.0 mm 0.00 in0.0 mm
07:00 PM 70.8°F21.6°C 65.4°F18.6°C 83% Calm Calm -- 30.02 in1016.6 mb - 0.00 in0.0 mm 0.00 in0.0 mm
07:10 PM 70.7°F21.5°C 65.3°F18.5°C 83% Calm Calm -- 30.02 in1016.6 mb - 0.00 in0.0 mm 0.00 in0.0 mm
07:20 PM 70.4°F21.3°C 64.6°F18.1°C 82% Calm Calm -- 30.02 in1016.6 mb - 0.00 in0.0 mm 0.00 in0.0 mm
07:30 PM 70.0°F21.1°C 64.3°F17.9°C 82% Calm Calm -- 30.03 in1016.9 mb - 0.00 in0.0 mm 0.00 in0.0 mm
07:40 PM 69.8°F21.0°C 64.1°F17.8°C 82% Calm Calm -- 30.03 in1016.9 mb - 0.00 in0.0 mm 0.00 in0.0 mm
07:50 PM 69.7°F20.9°C 64.3°F17.9°C 83% Calm Calm -- 30.04 in1017.3 mb - 0.00 in0.0 mm 0.00 in0.0 mm
08:00 PM 69.6°F20.9°C 64.2°F17.9°C 83% Calm Calm -- 30.04 in1017.3 mb - 0.00 in0.0 mm 0.00 in0.0 mm
08:10 PM 69.5°F20.8°C 64.1°F17.8°C 83% Calm Calm -- 30.04 in1017.3 mb - 0.00 in0.0 mm 0.00 in0.0 mm
08:20 PM 69.4°F20.8°C 63.7°F17.6°C 82% Calm Calm -- 30.05 in1017.6 mb - 0.00 in0.0 mm 0.00 in0.0 mm
08:30 PM 69.3°F20.7°C 63.6°F17.6°C 82% Calm Calm -- 30.05 in1017.6 mb - 0.00 in0.0 mm 0.00 in0.0 mm
08:40 PM 69.4°F20.8°C 63.7°F17.6°C 82% Calm Calm -- 30.05 in1017.6 mb - 0.00 in0.0 mm 0.00 in0.0 mm
08:50 PM 69.3°F20.7°C 63.6°F17.6°C 82% Calm Calm -- 30.05 in1017.6 mb - 0.00 in0.0 mm 0.00 in0.0 mm
09:00 PM 69.2°F20.7°C 63.5°F17.5°C 82% Calm Calm -- 30.05 in1017.6 mb - 0.00 in0.0 mm 0.00 in0.0 mm
09:10 PM 68.9°F20.5°C 63.5°F17.5°C 83% Calm Calm -- 30.06 in1017.9 mb - 0.00 in0.0 mm 0.00 in0.0 mm
09:20 PM 68.7°F20.4°C 63.7°F17.6°C 84% Calm Calm -- 30.06 in1017.9 mb - 0.00 in0.0 mm 0.00 in0.0 mm
09:30 PM 68.4°F20.2°C 63.4°F17.4°C 84% Calm Calm -- 30.07 in1018.3 mb - 0.00 in0.0 mm 0.00 in0.0 mm
09:40 PM 68.1°F20.1°C 63.4°F17.4°C 85% Calm Calm -- 30.07 in1018.3 mb - 0.00 in0.0 mm 0.00 in0.0 mm
09:50 PM 67.7°F19.8°C 63.4°F17.4°C 86% Calm Calm -- 30.07 in1018.3 mb - 0.00 in0.0 mm 0.00 in0.0 mm
10:00 PM 67.4°F19.7°C 63.0°F17.2°C 86% Calm Calm -- 30.07 in1018.3 mb - 0.00 in0.0 mm 0.00 in0.0 mm
10:10 PM 66.9°F19.4°C 62.6°F17.0°C 86% Calm Calm -- 30.07 in1018.3 mb - 0.00 in0.0 mm 0.00 in0.0 mm
10:20 PM 66.6°F19.2°C 62.6°F17.0°C 87% Calm Calm -- 30.07 in1018.3 mb - 0.00 in0.0 mm 0.00 in0.0 mm
10:30 PM 66.1°F18.9°C 62.1°F16.7°C 87% Calm Calm -- 30.07 in1018.3 mb - 0.00 in0.0 mm 0.00 in0.0 mm
10:40 PM 65.7°F18.7°C 62.1°F16.7°C 88% Calm Calm -- 30.07 in1018.3 mb - 0.00 in0.0 mm 0.00 in0.0 mm
10:50 PM 65.5°F18.6°C 62.2°F16.8°C 89% Calm Calm -- 30.07 in1018.3 mb - 0.00 in0.0 mm 0.00 in0.0 mm
11:00 PM 65.4°F18.6°C 62.1°F16.7°C 89% Calm Calm -- 30.07 in1018.3 mb - 0.00 in0.0 mm 0.00 in0.0 mm
11:10 PM 65.2°F18.4°C 61.9°F16.6°C 89% Calm Calm -- 30.07 in1018.3 mb - 0.00 in0.0 mm 0.00 in0.0 mm
11:20 PM 65.2°F18.4°C 61.9°F16.6°C 89% Calm Calm -- 30.07 in1018.3 mb - 0.00 in0.0 mm 0.00 in0.0 mm
11:30 PM 65.2°F18.4°C 61.9°F16.6°C 89% Calm Calm -- 30.07 in1018.3 mb - 0.00 in0.0 mm 0.00 in0.0 mm
11:40 PM 65.3°F18.5°C 62.0°F16.7°C 89% Calm Calm -- 30.07 in1018.3 mb - 0.00 in0.0 mm 0.00 in0.0 mm
11:50 PM 65.7°F18.7°C 62.3°F16.8°C 89% Calm Calm -- 30.06 in1017.9 mb - 0.00 in0.0 mm 0.00 in0.0 mm